createdAt,value
2023-05-05T00:04:09.096Z,101997.73
2023-05-05T00:07:50.723Z,101991.67
2023-05-05T00:11:34.454Z,101993.23
2023-05-05T00:15:26.205Z,101991.50
2023-05-05T00:18:57.601Z,101993.91
2023-05-05T00:22:44.734Z,101994.42
2023-05-05T00:26:39.742Z,101996.86
2023-05-05T00:30:33.169Z,102001.52
2023-05-05T00:34:10.612Z,102004.46
2023-05-05T00:37:55.009Z,102002.05
2023-05-05T00:41:29.152Z,102005.85
2023-05-05T00:45:13.212Z,102012.25
2023-05-05T00:48:24.540Z,102013.80
2023-05-05T00:52:13.292Z,102018.48
2023-05-05T00:56:22.861Z,102018.48
2023-05-05T00:59:18.016Z,102022.98
2023-05-05T01:02:23.758Z,102019.51
2023-05-05T01:05:46.512Z,102018.11
2023-05-05T01:09:46.329Z,102020.52
2023-05-05T01:13:08.719Z,102021.73
2023-05-05T01:16:45.245Z,102018.58
2023-05-05T01:20:32.786Z,102019.59
2023-05-05T01:24:37.364Z,102016.63
2023-05-05T01:27:55.880Z,102017.98
2023-05-05T01:32:00.544Z,102016.77
2023-05-05T01:35:54.474Z,102010.88
2023-05-05T01:39:46.254Z,102012.77
2023-05-05T01:43:36.652Z,102011.38
2023-05-05T01:46:50.196Z,102012.06
2023-05-05T01:50:14.781Z,102009.96
2023-05-05T01:53:09.720Z,102006.67
2023-05-05T01:57:18.245Z,102008.92
2023-05-05T02:00:45.709Z,102008.91
2023-05-05T02:04:36.882Z,102011.52
2023-05-05T02:08:16.188Z,102013.61
2023-05-05T02:11:34.023Z,102017.94
2023-05-05T02:15:26.277Z,102015.86
2023-05-05T02:19:34.671Z,102015.70
2023-05-05T02:22:49.306Z,102013.09
2023-05-05T02:26:50.555Z,102014.81
2023-05-05T02:30:38.261Z,102023.46
2023-05-05T02:34:16.540Z,102021.39
2023-05-05T02:38:03.096Z,102017.58
2023-05-05T02:41:55.975Z,102017.56
2023-05-05T02:45:26.761Z,102023.95
2023-05-05T02:49:16.743Z,102023.42
2023-05-05T02:52:46.225Z,102023.75
2023-05-05T02:55:49.842Z,102020.77
2023-05-05T02:59:58.858Z,102025.92
2023-05-05T03:03:30.494Z,102029.20
2023-05-05T03:07:40.328Z,102037.33
2023-05-05T03:10:59.325Z,102036.95
2023-05-05T03:14:51.341Z,102038.67
2023-05-05T03:18:28.586Z,102041.79
2023-05-05T03:22:06.201Z,102040.91
2023-05-05T03:26:25.115Z,102041.08
2023-05-05T03:29:23.552Z,102046.61
2023-05-05T03:32:48.290Z,102052.27
2023-05-05T03:36:04.694Z,102054.69
2023-05-05T03:39:56.486Z,102055.05
2023-05-05T03:43:41.216Z,102054.20
2023-05-05T03:47:25.778Z,102054.39
2023-05-05T03:51:02.093Z,102057.84
2023-05-05T03:54:47.004Z,102064.24
2023-05-05T03:58:39.048Z,102064.39
2023-05-05T04:02:24.330Z,102066.30
2023-05-05T04:06:19.055Z,102066.30
2023-05-05T04:09:49.223Z,102073.05
2023-05-05T04:13:04.651Z,102074.10
2023-05-05T04:16:57.091Z,102080.84
2023-05-05T04:20:40.286Z,102081.73
2023-05-05T04:23:52.239Z,102081.05
2023-05-05T04:26:46.888Z,102087.46
2023-05-05T04:30:16.984Z,102087.80
2023-05-05T04:33:30.016Z,102090.92
2023-05-05T04:36:14.989Z,102098.00
2023-05-05T04:39:46.990Z,102097.66
2023-05-05T04:43:41.371Z,102104.23
2023-05-05T04:47:50.924Z,102112.90
2023-05-05T04:52:00.556Z,102111.70
2023-05-05T04:55:32.963Z,102116.39
2023-05-05T04:58:40.676Z,102121.27
2023-05-05T05:02:20.317Z,102128.21
2023-05-05T05:06:22.411Z,102130.98
2023-05-05T05:10:21.408Z,102135.52
2023-05-05T05:14:24.591Z,102139.68
2023-05-05T05:17:59.215Z,102145.09
2023-05-05T05:20:54.910Z,102147.34
2023-05-05T05:24:36.464Z,102150.30
2023-05-05T05:28:06.103Z,102154.27
2023-05-05T05:31:43.555Z,102155.52
2023-05-05T05:35:52.958Z,102158.67
2023-05-05T05:39:54.973Z,102155.42
2023-05-05T05:44:04.490Z,102157.52
2023-05-05T05:47:15.783Z,102160.98
2023-05-05T05:50:46.048Z,102159.59
2023-05-05T05:54:54.738Z,102164.25
2023-05-05T05:58:53.581Z,102166.50
2023-05-05T06:02:48.128Z,102165.63
2023-05-05T06:06:07.916Z,102162.15
2023-05-05T06:10:18.508Z,102169.58
2023-05-05T06:14:07.091Z,102173.38
2023-05-05T06:17:21.878Z,102173.75
2023-05-05T06:21:08.627Z,102174.98
2023-05-05T06:25:18.013Z,102176.18
2023-05-05T06:29:27.779Z,102180.52
2023-05-05T06:33:20.358Z,102188.83
2023-05-05T06:37:27.396Z,102198.36
2023-05-05T06:41:29.891Z,102198.74
2023-05-05T06:45:39.555Z,102193.91
2023-05-05T06:49:42.117Z,102199.10
2023-05-05T06:53:33.955Z,102203.64
2023-05-05T06:57:06.128Z,102205.55
2023-05-05T07:00:35.543Z,102207.13
2023-05-05T07:04:45.224Z,102204.70
2023-05-05T07:08:37.220Z,102211.27
2023-05-05T07:11:46.889Z,102215.24
2023-05-05T07:15:46.306Z,102209.88
2023-05-05T07:19:37.106Z,102212.80
2023-05-05T07:23:46.115Z,102218.67
2023-05-05T07:27:55.887Z,102211.58
2023-05-05T07:31:12.646Z,102223.19
2023-05-05T07:34:43.319Z,102220.07
2023-05-05T07:38:52.986Z,102218.13
2023-05-05T07:42:37.663Z,102220.36
2023-05-05T07:46:40.115Z,102222.10
2023-05-05T07:50:23.910Z,102231.79
2023-05-05T07:54:03.792Z,102228.50
2023-05-05T07:58:02.164Z,102232.33
2023-05-05T08:01:53.161Z,102232.69
2023-05-05T08:05:42.040Z,102234.59
2023-05-05T08:09:45.252Z,102241.02
2023-05-05T08:13:44.052Z,102243.28
2023-05-05T08:17:40.302Z,102244.42
2023-05-05T08:21:32.299Z,102247.52
2023-05-05T08:25:41.868Z,102246.64
2023-05-05T08:29:42.093Z,102244.54
2023-05-05T08:33:51.552Z,102250.77
2023-05-05T08:37:51.103Z,102248.89
2023-05-05T08:41:53.358Z,102251.15
2023-05-05T08:45:52.633Z,102248.04
2023-05-05T08:50:02.121Z,102245.61
2023-05-05T08:53:46.332Z,102241.79
2023-05-05T08:57:30.807Z,102248.69
2023-05-05T09:01:02.239Z,102250.05
2023-05-05T09:04:51.620Z,102251.10
2023-05-05T09:08:51.347Z,102257.86
2023-05-05T09:12:42.633Z,102255.83
2023-05-05T09:16:43.197Z,102271.55
2023-05-05T09:20:58.124Z,102270.69
2023-05-05T09:24:30.128Z,102269.98
2023-05-05T09:28:26.180Z,102274.16
2023-05-05T09:32:15.399Z,102273.48
2023-05-05T09:36:07.687Z,102276.95
2023-05-05T09:40:06.294Z,102282.17
2023-05-05T09:44:30.797Z,102279.95
2023-05-05T09:48:21.189Z,102274.42
2023-05-05T09:52:09.528Z,102274.43
2023-05-05T09:55:52.851Z,102272.20
2023-05-05T10:00:11.419Z,102275.00
2023-05-05T10:03:53.840Z,102274.31
2023-05-05T10:07:20.834Z,102272.75
2023-05-05T10:11:14.877Z,102274.00
2023-05-05T10:15:08.713Z,102276.42
2023-05-05T10:18:58.358Z,102279.90
2023-05-05T10:22:27.962Z,102279.05
2023-05-05T10:26:24.171Z,102273.35
2023-05-05T10:30:25.476Z,102273.36
2023-05-05T10:34:35.139Z,102279.13
2023-05-05T10:38:34.248Z,102276.20
2023-05-05T10:42:22.512Z,102275.02
2023-05-05T10:45:50.204Z,102269.70
2023-05-05T10:51:38.465Z,102270.94
2023-05-05T10:54:15.125Z,102270.61
2023-05-05T10:57:59.652Z,102270.13
2023-05-05T11:01:50.929Z,102265.66
2023-05-05T11:05:53.957Z,102268.48
2023-05-05T11:09:22.444Z,102263.52
2023-05-05T11:13:33.575Z,102261.48
2023-05-05T11:17:42.356Z,102262.75
2023-05-05T11:20:57.164Z,102259.33
2023-05-05T11:25:01.252Z,102251.02
2023-05-05T11:28:39.569Z,102253.11
2023-05-05T11:31:49.759Z,102244.98
2023-05-05T11:35:30.450Z,102247.23
2023-05-05T11:38:47.991Z,102245.70
2023-05-05T11:42:11.088Z,102238.94
2023-05-05T11:45:41.441Z,102243.79
2023-05-05T11:49:17.361Z,102247.12
2023-05-05T11:53:26.862Z,102249.05
2023-05-05T11:57:29.834Z,102248.87
2023-05-05T12:00:58.809Z,102254.27
2023-05-05T12:04:29.910Z,102251.66
2023-05-05T12:08:39.354Z,102249.41
2023-05-05T12:12:26.053Z,102247.16
2023-05-05T12:15:51.778Z,102246.30
2023-05-05T12:19:15.940Z,102248.20
2023-05-05T12:22:50.575Z,102242.13
2023-05-05T12:26:13.176Z,102237.98
2023-05-05T12:30:08.442Z,102232.76
2023-05-05T12:34:01.778Z,102232.42
2023-05-05T12:38:07.536Z,102234.33
2023-05-05T12:41:25.944Z,102238.48
2023-05-05T12:45:09.241Z,102232.41
2023-05-05T12:49:05.159Z,102221.48
2023-05-05T12:52:35.788Z,102219.57
2023-05-05T12:56:18.482Z,102220.26
2023-05-05T13:00:26.710Z,102213.66
2023-05-05T13:04:26.160Z,102210.02
2023-05-05T13:07:49.231Z,102207.23
2023-05-05T13:11:08.597Z,102202.38
2023-05-05T13:15:01.012Z,102198.04
2023-05-05T13:18:34.055Z,102196.46
2023-05-05T13:21:25.062Z,102196.27
2023-05-05T13:24:51.820Z,102199.41
2023-05-05T13:28:36.809Z,102200.09
2023-05-05T13:31:56.836Z,102191.55
2023-05-05T13:34:58.064Z,102190.13
2023-05-05T13:38:20.085Z,102190.46
2023-05-05T13:42:18.361Z,102188.02
2023-05-05T13:45:23.030Z,102178.63
2023-05-05T13:48:56.763Z,102170.98
2023-05-05T13:52:35.238Z,102168.71
2023-05-05T13:56:16.525Z,102166.41
2023-05-05T14:00:26.200Z,102161.52
2023-05-05T14:04:05.681Z,102163.76
2023-05-05T14:07:47.395Z,102166.13
2023-05-05T14:11:17.397Z,102167.30
2023-05-05T14:14:23.616Z,102160.14
2023-05-05T14:17:52.955Z,102155.16
2023-05-05T14:20:54.652Z,102157.98
2023-05-05T14:23:31.260Z,102163.62
2023-05-05T14:26:04.357Z,102163.59
2023-05-05T14:28:35.631Z,102166.20
2023-05-05T14:31:04.292Z,102166.63
2023-05-05T14:33:36.208Z,102171.09
2023-05-05T14:36:07.504Z,102165.48
2023-05-05T14:38:58.640Z,102164.73
2023-05-05T14:41:35.630Z,102159.69
2023-05-05T14:44:07.688Z,102159.18
2023-05-05T14:46:42.558Z,102160.55
2023-05-05T14:49:12.264Z,102159.94
2023-05-05T14:51:43.923Z,102156.91
2023-05-05T14:54:30.451Z,102159.84
2023-05-05T14:57:46.910Z,102164.70
2023-05-05T15:01:23.823Z,102160.90
2023-05-05T15:04:40.794Z,102163.09
2023-05-05T15:08:10.168Z,102163.03
2023-05-05T15:11:00.495Z,102161.51
2023-05-05T15:14:09.620Z,102159.10
2023-05-05T15:16:58.384Z,102154.64
2023-05-05T15:20:05.369Z,102151.52
2023-05-05T15:23:30.239Z,102151.28
2023-05-05T15:27:15.059Z,102157.39
2023-05-05T15:30:57.589Z,102155.92
2023-05-05T15:34:37.757Z,102152.54
2023-05-05T15:38:29.498Z,102149.79
2023-05-05T15:42:10.359Z,102146.86
2023-05-05T15:46:01.991Z,102146.42
2023-05-05T15:50:10.450Z,102143.53
2023-05-05T15:53:59.537Z,102141.31
2023-05-05T15:57:03.322Z,102140.27
2023-05-05T15:59:43.286Z,102137.46
2023-05-05T16:02:23.667Z,102143.20
2023-05-05T16:05:45.544Z,102137.71
2023-05-05T16:09:55.204Z,102128.39
2023-05-05T16:13:27.810Z,102126.02
2023-05-05T16:16:12.285Z,102126.31
2023-05-05T16:19:16.051Z,102124.80
2023-05-05T16:22:28.966Z,102126.44
2023-05-05T16:26:18.958Z,102125.83
2023-05-05T16:29:45.884Z,102121.62
2023-05-05T16:33:36.533Z,102127.17
2023-05-05T16:37:38.393Z,102129.40
2023-05-05T16:41:41.394Z,102125.58
2023-05-05T16:45:51.349Z,102121.35
2023-05-05T16:50:03.326Z,102117.69
2023-05-05T16:54:04.889Z,102118.04
2023-05-05T16:57:35.926Z,102114.03
2023-05-05T17:01:04.171Z,102113.75
2023-05-05T17:04:46.111Z,102111.66
2023-05-05T17:08:17.595Z,102111.68
2023-05-05T17:12:04.388Z,102111.20
2023-05-05T17:15:11.600Z,102116.60
2023-05-05T17:18:31.314Z,102117.85
2023-05-05T17:22:40.704Z,102121.98
2023-05-05T17:26:05.547Z,102120.73
2023-05-05T17:29:23.857Z,102118.41
2023-05-05T17:33:13.555Z,102118.33
2023-05-05T17:37:05.235Z,102111.85
2023-05-05T17:41:14.700Z,102113.64
2023-05-05T17:45:05.841Z,102114.39
2023-05-05T17:49:05.748Z,102121.77
2023-05-05T17:52:49.793Z,102122.83
2023-05-05T17:56:30.527Z,102118.70
2023-05-05T18:00:13.811Z,102122.17
2023-05-05T18:03:55.698Z,102123.93
2023-05-05T18:08:05.468Z,102126.19
2023-05-05T18:11:54.806Z,102125.13
2023-05-05T18:16:03.741Z,102121.14
2023-05-05T18:19:38.275Z,102124.06
2023-05-05T18:23:17.528Z,102127.67
2023-05-05T18:26:53.236Z,102129.02
2023-05-05T18:30:37.139Z,102126.08
2023-05-05T18:34:01.937Z,102130.20
2023-05-05T18:37:50.260Z,102128.95
2023-05-05T18:41:15.697Z,102126.52
2023-05-05T18:45:15.043Z,102123.91
2023-05-05T18:49:14.241Z,102123.70
2023-05-05T18:53:06.348Z,102122.85
2023-05-05T18:57:07.003Z,102123.18
2023-05-05T19:01:02.098Z,102124.89
2023-05-05T19:04:32.575Z,102124.14
2023-05-05T19:08:42.188Z,102121.87
2023-05-05T19:12:51.743Z,102120.30
2023-05-05T19:16:30.497Z,102113.17
2023-05-05T19:19:17.152Z,102109.17
2023-05-05T19:23:17.593Z,102108.48
2023-05-05T19:27:16.592Z,102105.33
2023-05-05T19:31:24.817Z,102105.27
2023-05-05T19:35:10.539Z,102106.73
2023-05-05T19:38:44.846Z,102109.49
2023-05-05T19:42:50.387Z,102112.08
2023-05-05T19:46:37.679Z,102111.38
2023-05-05T19:50:19.903Z,102113.96
2023-05-05T19:54:20.339Z,102115.34
2023-05-05T19:58:29.922Z,102116.17
2023-05-05T20:02:15.304Z,102115.48
2023-05-05T20:06:10.690Z,102116.50
2023-05-05T20:10:13.003Z,102117.40
2023-05-05T20:14:01.049Z,102123.29
2023-05-05T20:18:10.668Z,102122.05
2023-05-05T20:22:20.120Z,102121.37
2023-05-05T20:26:21.304Z,102119.09
2023-05-05T20:30:20.799Z,102119.05
2023-05-05T20:34:30.410Z,102113.52
2023-05-05T20:38:39.973Z,102115.27
2023-05-05T20:42:49.467Z,102113.86
2023-05-05T20:46:24.391Z,102110.26
2023-05-05T20:50:26.835Z,102110.61
2023-05-05T20:54:36.537Z,102104.73
2023-05-05T20:58:45.929Z,102101.31
2023-05-05T21:02:31.822Z,102095.27
2023-05-05T21:06:26.125Z,102091.13
2023-05-05T21:10:26.702Z,102091.50
2023-05-05T21:14:36.090Z,102093.23
2023-05-05T21:18:46.012Z,102094.44
2023-05-05T21:22:55.168Z,102087.17
2023-05-05T21:27:04.788Z,102085.13
2023-05-05T21:31:21.967Z,102082.23
2023-05-05T21:35:37.232Z,102086.40
2023-05-05T21:39:46.775Z,102080.36
2023-05-05T21:43:49.073Z,102081.77
2023-05-05T21:47:33.651Z,102077.61
2023-05-05T21:51:41.930Z,102071.21
2023-05-05T21:55:51.378Z,102068.77
2023-05-05T22:00:01.046Z,102065.50
2023-05-05T22:03:48.063Z,102062.05
2023-05-05T22:07:57.669Z,102067.08
2023-05-05T22:12:07.244Z,102072.27
2023-05-05T22:16:16.938Z,102075.22
2023-05-05T22:20:28.817Z,102073.12
2023-05-05T22:24:38.400Z,102073.29
2023-05-05T22:28:47.805Z,102071.23
2023-05-05T22:32:57.332Z,102070.91
2023-05-05T22:37:06.905Z,102066.23
2023-05-05T22:41:16.366Z,102060.52
2023-05-05T22:45:25.919Z,102058.26
2023-05-05T22:49:35.633Z,102052.71
2023-05-05T22:53:25.047Z,102045.80
2023-05-05T22:57:33.907Z,102046.64
2023-05-05T23:01:43.532Z,102045.95
2023-05-05T23:05:45.596Z,102042.48
2023-05-05T23:09:55.046Z,102034.00
2023-05-05T23:13:54.533Z,102029.50
2023-05-05T23:17:38.978Z,102025.34
2023-05-05T23:21:53.368Z,102023.08
2023-05-05T23:26:03.349Z,102023.06
2023-05-05T23:30:12.928Z,102020.98
2023-05-05T23:34:12.142Z,102006.61
2023-05-05T23:38:30.286Z,101999.49
2023-05-05T23:42:39.194Z,101993.42
2023-05-05T23:46:48.684Z,101991.52
2023-05-05T23:50:58.139Z,101993.95
2023-05-05T23:55:08.242Z,101988.95
2023-05-05T23:59:17.977Z,101991.56
